Time;durP1;ratioP1;P1;durP2;ratioP2;P2;SDS_P1;SDS_P2;PMS_P1;PMS_P2;Temp;Humidity;BMP_temperature;BMP_pressure;BME280_temperature;BME280_humidity;BME280_pressure;Samples;Min_cycle;Max_cycle;Signal;HPM_P1;HPM_P2
2020/05/15 00:02:35;;;;;;;8;7.3;;;;;;;;;;;;;
2020/05/15 00:04:56;;;;;;;9.2;8.2;;;;;;;;;;;;;
2020/05/15 00:08:05;;;;;;;8.6;7.8;;;;;;;;;;;;;
2020/05/15 00:12:10;;;;;;;7.6;6.9;;;;;;;;;;;;;
2020/05/15 00:22:08;;;;;;;7.5;6.8;;;;;;;;;;;;;
2020/05/15 00:24:24;;;;;;;7.3;6.6;;;;;;;;;;;;;
2020/05/15 00:26:46;;;;;;;7.2;6.6;;;;;;;;;;;;;
2020/05/15 00:29:15;;;;;;;7.8;7.1;;;;;;;;;;;;;
2020/05/15 00:31:40;;;;;;;8.4;7.6;;;;;;;;;;;;;
2020/05/15 00:34:05;;;;;;;7.6;6.9;;;;;;;;;;;;;
2020/05/15 00:36:30;;;;;;;7.5;6.9;;;;;;;;;;;;;
2020/05/15 00:38:55;;;;;;;8.1;7.1;;;;;;;;;;;;;
2020/05/15 00:41:26;;;;;;;8.6;7.8;;;;;;;;;;;;;
2020/05/15 00:44:00;;;;;;;8.4;7.5;;;;;;;;;;;;;
2020/05/15 00:46:27;;;;;;;8.6;7.8;;;;;;;;;;;;;
2020/05/15 00:48:52;;;;;;;9.2;8.3;;;;;;;;;;;;;
2020/05/15 00:52:55;;;;;;;9.5;8.6;;;;;;;;;;;;;
2020/05/15 00:55:21;;;;;;;9.8;8.9;;;;;;;;;;;;;
2020/05/15 00:57:46;;;;;;;9.9;8.9;;;;;;;;;;;;;
2020/05/15 01:00:11;;;;;;;10.1;9.1;;;;;;;;;;;;;
2020/05/15 01:02:36;;;;;;;10;9.1;;;;;;;;;;;;;
2020/05/15 01:05:01;;;;;;;10.2;9.3;;;;;;;;;;;;;
2020/05/15 01:07:27;;;;;;;10.2;9.2;;;;;;;;;;;;;
2020/05/15 01:09:54;;;;;;;10.9;9.8;;;;;;;;;;;;;
2020/05/15 01:12:21;;;;;;;10.5;9.6;;;;;;;;;;;;;
2020/05/15 01:14:46;;;;;;;11.1;9.7;;;;;;;;;;;;;
2020/05/15 01:17:11;;;;;;;11;9.9;;;;;;;;;;;;;
2020/05/15 01:19:37;;;;;;;10.8;9.8;;;;;;;;;;;;;
2020/05/15 01:22:03;;;;;;;11.2;10.2;;;;;;;;;;;;;
2020/05/15 01:24:29;;;;;;;10.8;9.9;;;;;;;;;;;;;
2020/05/15 01:26:54;;;;;;;11.5;10.4;;;;;;;;;;;;;
2020/05/15 01:29:19;;;;;;;11.5;10.3;;;;;;;;;;;;;
2020/05/15 01:31:45;;;;;;;11.3;10.3;;;;;;;;;;;;;
2020/05/15 01:34:10;;;;;;;11.9;10.8;;;;;;;;;;;;;
2020/05/15 01:36:41;;;;;;;11.3;10.2;;;;;;;;;;;;;
2020/05/15 01:39:07;;;;;;;11.4;10.3;;;;;;;;;;;;;
2020/05/15 01:41:40;;;;;;;10.5;9.6;;;;;;;;;;;;;
2020/05/15 01:44:09;;;;;;;11.2;10.1;;;;;;;;;;;;;
2020/05/15 01:46:34;;;;;;;10.9;9.9;;;;;;;;;;;;;
2020/05/15 01:49:06;;;;;;;11.7;10.6;;;;;;;;;;;;;
2020/05/15 01:51:31;;;;;;;10.8;9.8;;;;;;;;;;;;;
2020/05/15 01:53:56;;;;;;;11.2;10.1;;;;;;;;;;;;;
2020/05/15 01:56:30;;;;;;;11.2;10.3;;;;;;;;;;;;;
2020/05/15 01:58:55;;;;;;;11.2;10.2;;;;;;;;;;;;;
2020/05/15 02:01:23;;;;;;;11;9.9;;;;;;;;;;;;;
2020/05/15 02:03:48;;;;;;;11;10;;;;;;;;;;;;;
2020/05/15 02:06:14;;;;;;;11;9.9;;;;;;;;;;;;;
2020/05/15 02:08:46;;;;;;;11.1;10.2;;;;;;;;;;;;;
2020/05/15 02:11:20;;;;;;;11.4;10.3;;;;;;;;;;;;;
2020/05/15 02:13:41;;;;;;;11.1;10.1;;;;;;;;;;;;;
2020/05/15 02:16:07;;;;;;;11.5;10.3;;;;;;;;;;;;;
2020/05/15 02:18:32;;;;;;;10.9;9.8;;;;;;;;;;;;;
2020/05/15 02:20:59;;;;;;;11.1;10;;;;;;;;;;;;;
2020/05/15 02:23:24;;;;;;;10.8;9.8;;;;;;;;;;;;;
2020/05/15 02:25:51;;;;;;;10.7;9.6;;;;;;;;;;;;;
2020/05/15 02:28:16;;;;;;;11.1;10;;;;;;;;;;;;;
2020/05/15 02:30:41;;;;;;;10.8;9.7;;;;;;;;;;;;;
2020/05/15 02:33:13;;;;;;;10.7;9.2;;;;;;;;;;;;;
2020/05/15 02:35:47;;;;;;;10.8;9.7;;;;;;;;;;;;;
2020/05/15 02:38:13;;;;;;;10.6;9.6;;;;;;;;;;;;;
2020/05/15 02:40:42;;;;;;;10.3;9.3;;;;;;;;;;;;;
2020/05/15 02:43:09;;;;;;;9.8;8.8;;;;;;;;;;;;;
2020/05/15 02:45:35;;;;;;;10.1;9.1;;;;;;;;;;;;;
2020/05/15 02:48:02;;;;;;;9.8;8.2;;;;;;;;;;;;;
2020/05/15 02:50:27;;;;;;;9.3;8.4;;;;;;;;;;;;;
2020/05/15 02:52:53;;;;;;;9.1;7.8;;;;;;;;;;;;;
2020/05/15 02:55:18;;;;;;;8.5;7.7;;;;;;;;;;;;;
2020/05/15 02:57:46;;;;;;;9.4;7.9;;;;;;;;;;;;;
2020/05/15 03:00:14;;;;;;;8.3;7.5;;;;;;;;;;;;;
2020/05/15 03:02:39;;;;;;;8.8;7.7;;;;;;;;;;;;;
2020/05/15 03:05:05;;;;;;;8.9;7.5;;;;;;;;;;;;;
2020/05/15 03:07:30;;;;;;;8.6;6.9;;;;;;;;;;;;;
2020/05/15 03:09:55;;;;;;;8.9;7;;;;;;;;;;;;;
2020/05/15 03:12:22;;;;;;;9;7;;;;;;;;;;;;;
2020/05/15 03:14:47;;;;;;;8.2;6.6;;;;;;;;;;;;;
2020/05/15 03:17:18;;;;;;;9.1;7.5;;;;;;;;;;;;;
2020/05/15 03:19:45;;;;;;;11.9;6.9;;;;;;;;;;;;;
2020/05/15 03:22:11;;;;;;;8.5;7;;;;;;;;;;;;;
2020/05/15 03:24:37;;;;;;;9;7.1;;;;;;;;;;;;;
2020/05/15 03:27:01;;;;;;;9.7;6.8;;;;;;;;;;;;;
2020/05/15 03:29:33;;;;;;;8.6;6.8;;;;;;;;;;;;;
2020/05/15 03:31:59;;;;;;;7.3;6.3;;;;;;;;;;;;;
2020/05/15 03:34:23;;;;;;;8.6;6.5;;;;;;;;;;;;;
2020/05/15 03:36:48;;;;;;;8.8;6.4;;;;;;;;;;;;;
2020/05/15 03:39:13;;;;;;;8.3;6.6;;;;;;;;;;;;;
2020/05/15 03:41:39;;;;;;;7.6;6.2;;;;;;;;;;;;;
2020/05/15 03:44:04;;;;;;;8;6.2;;;;;;;;;;;;;
2020/05/15 03:46:29;;;;;;;8;6.3;;;;;;;;;;;;;
2020/05/15 03:48:55;;;;;;;7.6;6.3;;;;;;;;;;;;;
2020/05/15 03:51:19;;;;;;;9.1;6.6;;;;;;;;;;;;;
2020/05/15 03:53:50;;;;;;;7.1;6.4;;;;;;;;;;;;;
2020/05/15 03:56:16;;;;;;;7.1;6.3;;;;;;;;;;;;;
2020/05/15 03:58:41;;;;;;;7.9;6.6;;;;;;;;;;;;;
2020/05/15 04:02:29;;;;;;;7.5;6.5;;;;;;;9.01;82.7041;953.4253;;;;
2020/05/15 04:05:12;;;;;;;8.1;6.5;;;;;;;9.06;82.47363;953.3924;;;;
2020/05/15 04:07:48;;;;;;;7.5;6.8;;;;;;;9.01;82.55566;953.4285;;;;
2020/05/15 04:10:13;;;;;;;7.7;6.6;;;;;;;9.01;82.22266;953.344;;;;
2020/05/15 04:12:38;;;;;;;8;6.8;;;;;;;9.07;82.61328;953.457;;;;
2020/05/15 04:15:05;;;;;;;7.8;6.4;;;;;;;8.96;82.59277;953.4277;;;;
2020/05/15 04:17:30;;;;;;;8.1;6.6;;;;;;;9.02;82.56836;953.4765;;;;
2020/05/15 04:19:55;;;;;;;7.3;6.3;;;;;;;9.08;82.41797;953.5115;;;;
2020/05/15 04:22:21;;;;;;;9.4;7;;;;;;;8.91;83.01953;953.5636;;;;
2020/05/15 04:24:50;;;;;;;7.8;6.6;;;;;;;8.91;83.30469;953.5901;;;;
2020/05/15 04:27:15;;;;;;;8.2;6.8;;;;;;;9.1;82.14844;953.5964;;;;
2020/05/15 04:29:54;;;;;;;8;6.9;;;;;;;9.09;82.33203;953.5826;;;;
2020/05/15 04:32:19;;;;;;;8.8;7;;;;;;;9.06;82.62109;953.6549;;;;
2020/05/15 04:34:45;;;;;;;7.8;6.6;;;;;;;9.03;82.03125;953.6838;;;;
2020/05/15 04:37:10;;;;;;;9.7;6.6;;;;;;;9.02;82.19043;953.7081;;;;
2020/05/15 04:39:44;;;;;;;7.7;6.9;;;;;;;9.08;82.62695;953.6741;;;;
2020/05/15 04:42:32;;;;;;;7.9;6.5;;;;;;;9.13;82.76172;953.6806;;;;
2020/05/15 04:45:13;;;;;;;8.7;6.9;;;;;;;8.96;83.0625;953.7031;;;;
2020/05/15 04:47:56;;;;;;;8.8;6.9;;;;;;;8.89;83.61035;953.7533;;;;
2020/05/15 04:50:21;;;;;;;9.1;7.1;;;;;;;9.07;82.23438;953.7285;;;;
2020/05/15 04:52:47;;;;;;;10.5;7;;;;;;;9.1;83.01953;953.7419;;;;
2020/05/15 04:55:26;;;;;;;9.6;7;;;;;;;9.06;82.93262;953.7495;;;;
2020/05/15 04:58:03;;;;;;;8;7;;;;;;;8.97;83.43164;953.7422;;;;
2020/05/15 05:00:31;;;;;;;8.3;6.5;;;;;;;9.1;82.6416;953.8223;;;;
2020/05/15 05:02:56;;;;;;;8.7;7.2;;;;;;;9.07;82.45313;953.8495;;;;
2020/05/15 05:05:26;;;;;;;7.7;6.9;;;;;;;9.1;82.49219;953.8005;;;;
2020/05/15 05:07:48;;;;;;;8.9;7.5;;;;;;;8.93;83.31934;953.8879;;;;
2020/05/15 05:10:33;;;;;;;8.7;6.8;;;;;;;8.97;83.21387;953.8705;;;;
2020/05/15 05:13:10;;;;;;;8.2;7.3;;;;;;;8.93;83.06738;953.8245;;;;
2020/05/15 05:15:56;;;;;;;8.4;7.4;;;;;;;8.9;84.08301;953.8867;;;;
2020/05/15 05:18:21;;;;;;;9.1;7.3;;;;;;;8.86;84.13086;953.791;;;;
2020/05/15 05:20:51;;;;;;;10.1;7.8;;;;;;;8.86;84.76367;953.8706;;;;
2020/05/15 05:23:29;;;;;;;9.3;8.1;;;;;;;8.92;84.13184;953.8797;;;;
2020/05/15 05:26:15;;;;;;;9;8;;;;;;;8.94;83.93066;953.8855;;;;
2020/05/15 05:28:41;;;;;;;11.9;8.7;;;;;;;8.98;84.00488;953.8895;;;;
2020/05/15 05:31:22;;;;;;;10.4;7.9;;;;;;;8.98;84.69434;953.9197;;;;
2020/05/15 05:33:47;;;;;;;8.2;7.3;;;;;;;8.98;84.26855;953.9416;;;;
2020/05/15 05:36:23;;;;;;;10.1;7.8;;;;;;;9.01;85.61914;953.9885;;;;
2020/05/15 05:38:48;;;;;;;7.9;7.1;;;;;;;8.96;84.73535;954.0167;;;;
2020/05/15 05:41:27;;;;;;;9.1;7.6;;;;;;;8.99;84.31934;954.0742;;;;
2020/05/15 05:44:03;;;;;;;8.7;7.5;;;;;;;9.11;84.22754;954.0589;;;;
2020/05/15 05:46:30;;;;;;;12.2;7.7;;;;;;;9.03;84.26758;954.1877;;;;
2020/05/15 05:49:07;;;;;;;10.4;8.1;;;;;;;9.05;84.82129;954.2263;;;;
2020/05/15 05:51:33;;;;;;;8.5;6.9;;;;;;;9.2;83.58984;954.2977;;;;
2020/05/15 05:53:58;;;;;;;10.8;8.1;;;;;;;9.2;84.6582;954.3555;;;;
2020/05/15 05:56:23;;;;;;;9.2;7.4;;;;;;;9.09;84.06348;954.2994;;;;
2020/05/15 05:58:48;;;;;;;9.2;7.4;;;;;;;9.15;84.17773;954.3691;;;;
2020/05/15 06:01:15;;;;;;;9.2;7.8;;;;;;;9.2;84.62207;954.3627;;;;
2020/05/15 06:03:40;;;;;;;11.6;7.5;;;;;;;9.25;83.47363;954.3879;;;;
2020/05/15 06:06:05;;;;;;;8.5;7.4;;;;;;;9.21;84.33691;954.4701;;;;
2020/05/15 06:11:06;;;;;;;8.8;7.9;;;;;;;9.28;83.49219;954.491;;;;
2020/05/15 06:13:31;;;;;;;8.7;7.8;;;;;;;9.46;83.05664;954.5172;;;;
2020/05/15 06:16:02;;;;;;;10.9;7.7;;;;;;;9.38;83.06348;954.5964;;;;
2020/05/15 06:18:30;;;;;;;10.6;8;;;;;;;9.26;84.76074;954.5953;;;;
2020/05/15 06:20:55;;;;;;;9.2;8;;;;;;;9.29;84.81152;954.5991;;;;
2020/05/15 06:23:24;;;;;;;8.8;7.9;;;;;;;9.3;85.36621;954.6312;;;;
2020/05/15 06:25:54;;;;;;;10.4;8.2;;;;;;;9.29;85.32813;954.6795;;;;
2020/05/15 06:31:40;;;;;;;9;8.1;;;;;;;9.33;84.03809;954.7703;;;;
2020/05/15 06:34:17;;;;;;;8.8;7.9;;;;;;;9.3;85.10059;954.7658;;;;
2020/05/15 06:39:05;;;;;;;8.6;7.6;;;;;;;9.49;84.06055;954.8365;;;;
2020/05/15 06:41:40;;;;;;;9.3;7.7;;;;;;;9.61;83.39355;954.9156;;;;
2020/05/15 06:44:09;;;;;;;9.3;8.3;;;;;;;9.55;84.33496;954.9415;;;;
2020/05/15 06:46:35;;;;;;;10;7.8;;;;;;;9.63;83.26953;954.9986;;;;
2020/05/15 06:49:19;;;;;;;9.5;7.9;;;;;;;9.57;82.88184;955.014;;;;
2020/05/15 06:51:47;;;;;;;8.8;7.8;;;;;;;9.55;83.27832;955.022;;;;
2020/05/15 06:54:15;;;;;;;8.8;7.9;;;;;;;9.5;83.32715;955.1;;;;
2020/05/15 06:56:55;;;;;;;12.2;9.3;;;;;;;9.54;83.94434;955.1797;;;;
2020/05/15 06:59:21;;;;;;;10.8;9;;;;;;;9.48;84.32031;955.155;;;;
2020/05/15 07:01:46;;;;;;;10.6;8.7;;;;;;;9.57;84.02832;955.1954;;;;
2020/05/15 07:04:19;;;;;;;13.7;9.6;;;;;;;9.59;84.28809;955.1853;;;;
2020/05/15 07:06:47;;;;;;;11.1;9.9;;;;;;;9.61;83.87598;955.1995;;;;
2020/05/15 07:09:39;;;;;;;10.7;7.9;;;;;;;9.69;82.93652;955.1817;;;;
2020/05/15 07:11:44;;;;;;;8.9;7.8;;;;;;;9.66;83.07129;955.2573;;;;
2020/05/15 07:14:05;;;;;;;9.5;7.8;;;;;;;9.7;82.30859;955.2147;;;;
2020/05/15 07:21:42;;;;;;;9.9;7.9;;;;;;;9.78;81.49707;955.358;;;;
2020/05/15 07:31:47;;;;;;;9.2;7.9;;;;;;;9.8;81.77637;955.4618;;;;
2020/05/15 07:34:15;;;;;;;9.8;7.8;;;;;;;9.94;81.64258;955.5201;;;;
2020/05/15 07:36:38;;;;;;;8.7;7.8;;;;;;;9.88;81.10156;955.5347;;;;
2020/05/15 07:39:21;;;;;;;10.1;7.6;;;;;;;9.89;81.20898;955.6089;;;;
2020/05/15 07:41:44;;;;;;;10.4;8;;;;;;;9.6;82.1748;955.69;;;;
2020/05/15 07:44:05;;;;;;;10.7;7.8;;;;;;;9.59;82.09473;955.7075;;;;
2020/05/15 07:46:32;;;;;;;11.3;8.9;;;;;;;9.71;83.04492;955.7794;;;;
2020/05/15 07:51:37;;;;;;;9.2;8.3;;;;;;;9.72;83.32324;955.8258;;;;
2020/05/15 07:54:05;;;;;;;10.8;8;;;;;;;9.68;81.74023;955.8895;;;;
2020/05/15 07:56:42;;;;;;;11.6;8.3;;;;;;;9.42;83.79395;955.9274;;;;
2020/05/15 07:59:08;;;;;;;11.6;9.1;;;;;;;9.4;84.09863;955.9899;;;;
2020/05/15 08:01:33;;;;;;;10.2;8.6;;;;;;;9.52;82.51563;956.0139;;;;
2020/05/15 08:04:08;;;;;;;11.4;8.5;;;;;;;9.53;82.64355;956.0204;;;;
2020/05/15 08:06:38;;;;;;;10.5;8.9;;;;;;;9.38;83.56836;956.1301;;;;
2020/05/15 08:09:11;;;;;;;9.5;8.2;;;;;;;9.44;83.77441;956.1287;;;;
2020/05/15 08:11:38;;;;;;;9.8;8.3;;;;;;;9.46;83.57129;956.1893;;;;
2020/05/15 08:14:07;;;;;;;11.9;8.7;;;;;;;9.54;83.74902;956.2486;;;;
2020/05/15 08:16:45;;;;;;;9.8;7.7;;;;;;;9.56;84.49707;956.2665;;;;
2020/05/15 08:19:14;;;;;;;9;7.7;;;;;;;9.76;82.40137;956.3572;;;;
2020/05/15 08:21:42;;;;;;;8.8;7.9;;;;;;;9.8;82.58008;956.3658;;;;
2020/05/15 08:24:10;;;;;;;9.7;8.7;;;;;;;9.68;82.92383;956.3671;;;;
2020/05/15 08:26:35;;;;;;;10.7;9.7;;;;;;;9.88;82.14746;956.4023;;;;
2020/05/15 08:29:00;;;;;;;9.5;8.6;;;;;;;9.9;82.07227;956.4849;;;;
2020/05/15 08:31:31;;;;;;;10.1;9.1;;;;;;;9.86;83.5459;956.5101;;;;
2020/05/15 08:33:56;;;;;;;10.8;9.8;;;;;;;9.76;82.68652;956.5972;;;;
2020/05/15 08:36:21;;;;;;;10.7;9.4;;;;;;;9.71;84.82617;956.6337;;;;
2020/05/15 08:38:47;;;;;;;9.7;8.7;;;;;;;9.79;83.73828;956.6767;;;;
2020/05/15 08:41:12;;;;;;;10.9;9;;;;;;;9.86;84.46484;956.6948;;;;
2020/05/15 08:43:37;;;;;;;9.6;8.6;;;;;;;9.86;83.5918;956.7217;;;;
2020/05/15 08:46:05;;;;;;;9.7;8.2;;;;;;;9.91;81.99121;956.765;;;;
2020/05/15 08:48:33;;;;;;;8.4;7.5;;;;;;;9.73;82.78418;956.7911;;;;
2020/05/15 08:50:58;;;;;;;9.2;8;;;;;;;9.64;82.31934;956.7733;;;;
2020/05/15 08:53:30;;;;;;;8.7;7.2;;;;;;;9.93;80.65234;956.7919;;;;
2020/05/15 08:55:52;;;;;;;8.6;7.7;;;;;;;9.93;81.93945;956.8387;;;;
2020/05/15 08:58:23;;;;;;;8.3;7.5;;;;;;;9.88;82.41309;956.8736;;;;
2020/05/15 09:00:54;;;;;;;8.6;7.7;;;;;;;9.92;82.59277;957.0173;;;;
2020/05/15 09:03:23;;;;;;;9.2;7.5;;;;;;;9.85;83.7832;957.03;;;;
2020/05/15 09:05:50;;;;;;;8.9;7.9;;;;;;;9.88;82.79102;957.0396;;;;
2020/05/15 09:08:23;;;;;;;10.5;8.2;;;;;;;9.74;85.52246;957.0915;;;;
2020/05/15 09:11:00;;;;;;;9.8;8.8;;;;;;;9.83;85.12598;957.1005;;;;
2020/05/15 09:13:25;;;;;;;9.6;8.6;;;;;;;9.66;85.1709;957.1582;;;;
2020/05/15 09:16:08;;;;;;;10.1;9.1;;;;;;;9.62;86.80664;957.1609;;;;
2020/05/15 09:18:45;;;;;;;12.4;8.8;;;;;;;9.76;86.0752;957.1936;;;;
2020/05/15 09:21:17;;;;;;;11.1;9.9;;;;;;;9.73;87.20703;957.2819;;;;
2020/05/15 09:23:42;;;;;;;10.4;8.9;;;;;;;9.83;86.26367;957.2966;;;;
2020/05/15 09:26:12;;;;;;;11.7;9;;;;;;;9.72;86.27441;957.3164;;;;
2020/05/15 09:28:37;;;;;;;10.8;8.9;;;;;;;9.64;85.05469;957.3615;;;;
2020/05/15 09:31:41;;;;;;;10.1;8.8;;;;;;;9.67;84.89941;957.4418;;;;
2020/05/15 09:36:28;;;;;;;9.6;8.7;;;;;;;9.9;83.30176;957.495;;;;
2020/05/15 09:38:41;;;;;;;10.3;9.2;;;;;;;9.79;84.25586;957.51;;;;
2020/05/15 09:41:06;;;;;;;11.5;9.7;;;;;;;9.66;85.74512;957.5822;;;;
2020/05/15 09:43:37;;;;;;;11.8;9.6;;;;;;;9.74;85.26953;957.6091;;;;
2020/05/15 09:46:03;;;;;;;11.3;9.2;;;;;;;9.92;83.43164;957.6035;;;;
2020/05/15 09:48:36;;;;;;;10.2;9.2;;;;;;;9.86;83.55762;957.7162;;;;
2020/05/15 09:51:05;;;;;;;11;9.5;;;;;;;9.6;84.70117;957.7111;;;;
2020/05/15 09:53:37;;;;;;;11.9;9.4;;;;;;;9.63;83.96973;957.7141;;;;
2020/05/15 09:56:15;;;;;;;11.4;10.2;;;;;;;9.54;85.55176;957.7859;;;;
2020/05/15 09:58:59;;;;;;;11.6;9.9;;;;;;;9.64;85.70703;957.7634;;;;
2020/05/15 10:01:35;;;;;;;11.5;10.1;;;;;;;9.88;84.26172;957.8323;;;;
2020/05/15 10:03:29;;;;;;;10.9;9.6;;;;;;;9.93;84.30664;957.8764;;;;
2020/05/15 10:05:55;;;;;;;12.7;10;;;;;;;9.94;84.00781;957.8569;;;;
2020/05/15 10:08:21;;;;;;;10.8;9.7;;;;;;;10.03;82.62598;957.901;;;;
2020/05/15 10:10:49;;;;;;;10.8;9.7;;;;;;;10.04;82.99414;957.9604;;;;
2020/05/15 10:13:17;;;;;;;10.7;9.2;;;;;;;10.13;81.89648;957.9727;;;;
2020/05/15 10:15:42;;;;;;;11.7;9.6;;;;;;;10.1;82.83398;957.9966;;;;
2020/05/15 10:18:09;;;;;;;12.2;10.1;;;;;;;10.05;84.83496;957.9996;;;;
2020/05/15 10:20:47;;;;;;;11.6;9.7;;;;;;;9.98;83.24609;958.0554;;;;
2020/05/15 10:23:15;;;;;;;10.8;9.6;;;;;;;10.17;82.81348;958.1276;;;;
2020/05/15 10:25:40;;;;;;;10.4;9.4;;;;;;;10.2;82.37988;958.1473;;;;
2020/05/15 10:28:12;;;;;;;10.4;9.3;;;;;;;9.99;82.70801;958.1605;;;;
2020/05/15 10:30:38;;;;;;;10.8;9.7;;;;;;;10.18;82.07715;958.1781;;;;
2020/05/15 10:33:05;;;;;;;12.1;10.4;;;;;;;10.07;83.74707;958.2289;;;;
2020/05/15 10:35:33;;;;;;;11.1;10;;;;;;;10.2;81.79297;958.3109;;;;
2020/05/15 10:38:00;;;;;;;11.3;9.5;;;;;;;10.22;81.51074;958.3204;;;;
2020/05/15 10:40:36;;;;;;;11.6;10.4;;;;;;;10.17;81.9834;958.3901;;;;
2020/05/15 10:42:52;;;;;;;11.9;10.6;;;;;;;9.99;83.3291;958.3917;;;;
2020/05/15 10:45:15;;;;;;;13;10.5;;;;;;;10.05;83.09961;958.4409;;;;
2020/05/15 10:47:41;;;;;;;12.6;11.4;;;;;;;10.16;84.68359;958.5098;;;;
2020/05/15 10:50:11;;;;;;;12;10.8;;;;;;;10.19;84.13867;958.5291;;;;
2020/05/15 10:52:45;;;;;;;12.7;11.4;;;;;;;10.05;84.375;958.5297;;;;
2020/05/15 10:55:26;;;;;;;13;11.6;;;;;;;10.25;83.01074;958.6027;;;;
2020/05/15 10:57:53;;;;;;;13.8;10.5;;;;;;;10.15;82.94727;958.6401;;;;
2020/05/15 11:00:18;;;;;;;13.6;11.4;;;;;;;10.17;82.51367;958.6683;;;;
2020/05/15 11:02:50;;;;;;;14.2;11.5;;;;;;;10.18;84.32129;958.6342;;;;
2020/05/15 11:05:16;;;;;;;12.6;11.3;;;;;;;10.12;84.00977;958.6981;;;;
2020/05/15 11:07:58;;;;;;;14.1;12.7;;;;;;;9.99;84.13477;958.7079;;;;
2020/05/15 11:10:40;;;;;;;13.5;12.1;;;;;;;10.04;84.05176;958.764;;;;
2020/05/15 11:13:24;;;;;;;15.4;12.1;;;;;;;10.19;84.8291;958.8254;;;;
2020/05/15 11:15:49;;;;;;;13.7;12.3;;;;;;;10.22;83.52344;958.8815;;;;
2020/05/15 11:18:27;;;;;;;12.6;11.3;;;;;;;10.31;82.22949;958.9113;;;;
2020/05/15 11:20:52;;;;;;;13.1;11.8;;;;;;;10.4;82.21191;958.9194;;;;
2020/05/15 11:23:17;;;;;;;14.1;12.6;;;;;;;10.37;83.97949;958.9164;;;;
2020/05/15 11:25:42;;;;;;;15.5;14;;;;;;;10.37;82.81641;959.0011;;;;
2020/05/15 11:28:07;;;;;;;14.4;12.9;;;;;;;10.38;83.69238;959.0145;;;;
2020/05/15 11:30:45;;;;;;;14;12.6;;;;;;;10.39;83.78809;959.0162;;;;
2020/05/15 11:33:15;;;;;;;14.3;12.8;;;;;;;10.37;84.58594;959.0703;;;;
2020/05/15 11:35:42;;;;;;;14.9;13.3;;;;;;;10.34;83.34082;959.1008;;;;
2020/05/15 11:38:18;;;;;;;14.7;13.2;;;;;;;10.38;84.47461;959.178;;;;
2020/05/15 11:40:52;;;;;;;13.4;12;;;;;;;10.45;82.80664;959.2161;;;;
2020/05/15 11:43:17;;;;;;;14;12.6;;;;;;;10.22;83.9375;959.2195;;;;
2020/05/15 11:45:42;;;;;;;15.2;13.6;;;;;;;10.28;82.76465;959.2486;;;;
2020/05/15 11:48:35;;;;;;;14.3;12.7;;;;;;;10.3;83.23926;959.2759;;;;
2020/05/15 11:51:22;;;;;;;15.2;13.4;;;;;;;10.34;82.37402;959.2678;;;;
2020/05/15 11:53:15;;;;;;;14.9;13.3;;;;;;;10.41;83.70898;959.3083;;;;
2020/05/15 11:55:41;;;;;;;16.7;15;;;;;;;10.47;81.21289;959.3478;;;;
2020/05/15 11:58:15;;;;;;;15.6;14.1;;;;;;;10.45;81.42773;959.3823;;;;
2020/05/15 12:00:50;;;;;;;16.3;14.8;;;;;;;10.24;83.5957;959.399;;;;
2020/05/15 12:03:13;;;;;;;16.4;14.9;;;;;;;10.33;83.58008;959.3964;;;;
2020/05/15 12:05:38;;;;;;;15.9;14.3;;;;;;;10.33;83.23535;959.4289;;;;
2020/05/15 12:08:07;;;;;;;15.1;13.7;;;;;;;10.35;83.6875;959.4486;;;;
2020/05/15 12:10:40;;;;;;;13.5;12.3;;;;;;;10.43;83.77148;959.5187;;;;
2020/05/15 12:13:05;;;;;;;13.8;12.4;;;;;;;10.41;83.91602;959.493;;;;
2020/05/15 12:15:45;;;;;;;13.9;12.5;;;;;;;10.39;83.92383;959.5588;;;;
2020/05/15 12:22:05;;;;;;;13.7;12.4;;;;;;;10.49;82.54102;959.5974;;;;
2020/05/15 12:23:19;;;;;;;13.5;12.1;;;;;;;10.62;82.0127;959.5754;;;;
2020/05/15 12:25:44;;;;;;;13.5;12.1;;;;;;;10.88;80.8291;959.6273;;;;
2020/05/15 12:28:15;;;;;;;11.4;10.2;;;;;;;11.03;81.31738;959.6227;;;;
2020/05/15 12:30:47;;;;;;;12;10.7;;;;;;;11.28;79.76367;959.6548;;;;
2020/05/15 12:33:19;;;;;;;11.6;9.8;;;;;;;11.5;78.66113;959.6573;;;;
2020/05/15 12:36:01;;;;;;;10;9;;;;;;;11.84;77.76465;959.7023;;;;
2020/05/15 12:38:27;;;;;;;9.9;8.8;;;;;;;12.09;75.45508;959.6907;;;;
2020/05/15 12:40:58;;;;;;;11.2;10.1;;;;;;;12.05;74.70801;959.69;;;;
2020/05/15 12:43:23;;;;;;;10.6;9.6;;;;;;;12.1;75.17773;959.7455;;;;
2020/05/15 12:46:07;;;;;;;10.1;9;;;;;;;11.96;75.02832;959.7729;;;;
2020/05/15 12:48:30;;;;;;;11.3;8.8;;;;;;;11.91;75.72266;959.8222;;;;
2020/05/15 12:51:04;;;;;;;10.2;9.1;;;;;;;11.96;77.09473;959.8243;;;;
2020/05/15 12:53:30;;;;;;;10.1;9.1;;;;;;;12.13;76.5459;959.8488;;;;
2020/05/15 12:56:05;;;;;;;10.6;9.3;;;;;;;12.28;74.08789;959.9137;;;;
2020/05/15 12:58:30;;;;;;;10.7;9.6;;;;;;;12.09;74.24121;959.9415;;;;
2020/05/15 13:01:13;;;;;;;10.3;9.3;;;;;;;12.26;74.51172;959.9517;;;;
2020/05/15 13:03:43;;;;;;;10.1;8.7;;;;;;;12.44;74.34668;959.9;;;;
2020/05/15 13:06:09;;;;;;;10;9;;;;;;;12.31;73.29688;959.9288;;;;
2020/05/15 13:08:34;;;;;;;8.7;7.9;;;;;;;12.44;73.50293;959.963;;;;
2020/05/15 13:11:16;;;;;;;10;9;;;;;;;11.97;72.71973;960.0134;;;;
2020/05/15 13:13:38;;;;;;;10.5;9.4;;;;;;;11.68;73.95117;960.0438;;;;
2020/05/15 13:16:10;;;;;;;10.8;9.7;;;;;;;11.83;74.55469;960.1105;;;;
2020/05/15 13:18:39;;;;;;;12;10;;;;;;;12.13;74.57031;960.0775;;;;
2020/05/15 13:21:12;;;;;;;10.4;9.4;;;;;;;12.26;73.53027;960.0792;;;;
2020/05/15 13:23:39;;;;;;;10.9;9;;;;;;;12.39;74.47852;960.0876;;;;
2020/05/15 13:26:05;;;;;;;10.5;9.5;;;;;;;12.21;73.4873;960.1105;;;;
2020/05/15 13:28:30;;;;;;;10.9;9.1;;;;;;;12.39;74.10645;960.1506;;;;
2020/05/15 13:31:16;;;;;;;10.1;9.1;;;;;;;12.53;71.57422;960.1562;;;;
2020/05/15 13:33:55;;;;;;;11.3;9.4;;;;;;;12.4;74.15625;960.1644;;;;
2020/05/15 13:36:23;;;;;;;10.2;9.2;;;;;;;12.62;73.77637;960.1744;;;;
2020/05/15 13:39:02;;;;;;;11.3;9.5;;;;;;;12.6;74.90527;960.2039;;;;
2020/05/15 13:41:36;;;;;;;9.9;8.7;;;;;;;12.19;73.99219;960.2475;;;;
2020/05/15 13:43:48;;;;;;;9.5;8.6;;;;;;;12.61;73.50879;960.1802;;;;
2020/05/15 13:46:19;;;;;;;9.8;8.9;;;;;;;12.48;72.66699;960.2449;;;;
2020/05/15 13:49:07;;;;;;;10.1;9.1;;;;;;;12.69;74.96875;960.2385;;;;
2020/05/15 13:51:32;;;;;;;9.2;8.3;;;;;;;13.01;72.68555;960.2189;;;;
2020/05/15 13:54:00;;;;;;;10.5;9.4;;;;;;;12.85;74.01074;960.2656;;;;
2020/05/15 13:56:26;;;;;;;11.8;9.1;;;;;;;12.67;72.60547;960.2748;;;;
2020/05/15 13:59:05;;;;;;;10.4;9.3;;;;;;;12.86;72.6709;960.3628;;;;
2020/05/15 14:01:32;;;;;;;11.4;9.6;;;;;;;12.71;74.6709;960.384;;;;
2020/05/15 14:04:04;;;;;;;12.9;9.2;;;;;;;12.57;72.7959;960.4512;;;;
2020/05/15 14:06:46;;;;;;;10;9;;;;;;;12.54;73.3584;960.4214;;;;
2020/05/15 14:09:15;;;;;;;9.7;8.7;;;;;;;12.69;73.49902;960.3897;;;;
2020/05/15 14:11:53;;;;;;;10.6;9.5;;;;;;;12.46;72.97461;960.4227;;;;
2020/05/15 14:14:16;;;;;;;10.1;9.1;;;;;;;12.74;73.04395;960.4392;;;;
2020/05/15 14:16:42;;;;;;;10;8.9;;;;;;;12.92;73.53711;960.4216;;;;
2020/05/15 14:19:07;;;;;;;10.9;9.5;;;;;;;12.9;72.74902;960.4764;;;;
2020/05/15 14:21:40;;;;;;;10.7;9.6;;;;;;;12.84;72.4375;960.4724;;;;
2020/05/15 14:24:15;;;;;;;11.5;10.3;;;;;;;12.86;73.94434;960.4319;;;;
2020/05/15 14:26:43;;;;;;;10.9;9.9;;;;;;;12.99;71.21191;960.4103;;;;
2020/05/15 14:29:08;;;;;;;10.7;9.6;;;;;;;13.17;71.10156;960.4483;;;;
2020/05/15 14:31:47;;;;;;;10.4;9.4;;;;;;;13.16;71.1123;960.4586;;;;
2020/05/15 14:34:12;;;;;;;12.5;9.7;;;;;;;13.1;71.97168;960.4902;;;;
2020/05/15 14:36:45;;;;;;;11.9;10.7;;;;;;;12.9;73.73145;960.5664;;;;
2020/05/15 14:39:30;;;;;;;11.4;10.3;;;;;;;12.73;72.6377;960.5422;;;;
2020/05/15 14:41:54;;;;;;;11.9;10.7;;;;;;;12.93;73.8877;960.5364;;;;
2020/05/15 14:44:22;;;;;;;10.6;9.5;;;;;;;13.09;70.53418;960.6093;;;;
2020/05/15 14:46:54;;;;;;;11;9.9;;;;;;;13.21;71.48145;960.5427;;;;
2020/05/15 14:49:19;;;;;;;11.5;10.3;;;;;;;12.88;70.33789;960.5906;;;;
2020/05/15 14:51:46;;;;;;;11.4;10.2;;;;;;;12.56;71.17773;960.6777;;;;
2020/05/15 14:54:11;;;;;;;12.3;11.1;;;;;;;12.85;73.93164;960.6786;;;;
2020/05/15 14:56:38;;;;;;;12.6;10.9;;;;;;;12.89;70.95215;960.647;;;;
2020/05/15 14:59:11;;;;;;;11.6;10.5;;;;;;;13.01;71.01953;960.7;;;;
2020/05/15 15:01:39;;;;;;;12.2;10.7;;;;;;;13.55;69.8457;960.7144;;;;
2020/05/15 15:04:06;;;;;;;11.9;10.8;;;;;;;13.65;68.93262;960.747;;;;
2020/05/15 15:06:38;;;;;;;11;9.8;;;;;;;13.97;68.77441;960.698;;;;
2020/05/15 15:09:08;;;;;;;11.2;10.1;;;;;;;14.23;68.54883;960.7335;;;;
2020/05/15 15:11:40;;;;;;;11.1;9.9;;;;;;;14.49;67.42773;960.7614;;;;
2020/05/15 15:14:08;;;;;;;11.6;10;;;;;;;13.65;66.9043;960.7717;;;;
2020/05/15 15:16:39;;;;;;;11.5;10.3;;;;;;;13.92;67.65234;960.8493;;;;
2020/05/15 15:19:13;;;;;;;11.6;10.5;;;;;;;13.57;67.7041;960.8486;;;;
2020/05/15 15:21:58;;;;;;;11.8;10.7;;;;;;;13.04;68.3252;960.8705;;;;
2020/05/15 15:24:24;;;;;;;11.7;10.5;;;;;;;13.86;67.50391;960.9406;;;;
2020/05/15 15:26:51;;;;;;;11.9;10.8;;;;;;;14.19;66.06934;960.9358;;;;
2020/05/15 15:29:17;;;;;;;12.5;11.2;;;;;;;13.34;66.69336;960.9584;;;;
2020/05/15 15:31:43;;;;;;;12;10.8;;;;;;;13.14;71.22461;960.9037;;;;
2020/05/15 15:34:15;;;;;;;12.2;11;;;;;;;13.34;72.17188;960.9101;;;;
2020/05/15 15:36:46;;;;;;;11.8;10.5;;;;;;;13.14;69.60449;960.943;;;;
2020/05/15 15:39:21;;;;;;;11.6;10.5;;;;;;;13.1;69.88672;960.9579;;;;
2020/05/15 15:42:05;;;;;;;11.6;10.4;;;;;;;13.02;71.10059;960.9481;;;;
2020/05/15 15:44:55;;;;;;;11.8;10.6;;;;;;;12.84;71.18848;960.9722;;;;
2020/05/15 15:47:20;;;;;;;11.6;10.4;;;;;;;13.01;69.88477;960.9225;;;;
2020/05/15 15:50:17;;;;;;;11.8;10.6;;;;;;;12.98;69.91504;960.9903;;;;
2020/05/15 15:54:43;;;;;;;12.6;10.5;;;;;;;12.72;72.09473;961.1105;;;;
2020/05/15 15:57:11;;;;;;;11.5;10.3;;;;;;;12.64;72.57715;961.0922;;;;
2020/05/15 15:59:46;;;;;;;11.4;10.2;;;;;;;12.77;70.9668;961.1699;;;;
2020/05/15 16:02:16;;;;;;;11.6;10.5;;;;;;;12.69;72.50488;961.1845;;;;
2020/05/15 16:04:41;;;;;;;11.3;10.1;;;;;;;12.64;74.43848;961.2098;;;;
2020/05/15 16:07:12;;;;;;;12.2;10.9;;;;;;;12.55;74.55078;961.2299;;;;
2020/05/15 16:09:58;;;;;;;11.7;10.5;;;;;;;12.65;73.17969;961.2557;;;;
2020/05/15 16:12:33;;;;;;;11.8;10.5;;;;;;;12.58;74.07129;961.2516;;;;
2020/05/15 16:14:59;;;;;;;10.9;9.8;;;;;;;12.55;73.98535;961.2576;;;;
2020/05/15 16:19:44;;;;;;;11.8;10.5;;;;;;;12.43;74.59961;961.2388;;;;
2020/05/15 16:22:12;;;;;;;11.7;10.5;;;;;;;12.42;73.70801;961.2299;;;;
2020/05/15 16:24:50;;;;;;;11.7;10.5;;;;;;;12.21;73.2793;961.274;;;;
2020/05/15 16:27:18;;;;;;;12.8;10.2;;;;;;;12.16;73.59473;961.3337;;;;
2020/05/15 16:29:59;;;;;;;12;10.1;;;;;;;12.24;75.60547;961.3047;;;;